createdAt,value
2017-09-14T00:00:38.268Z,0
2017-09-14T00:01:47.605Z,0
2017-09-14T00:02:56.624Z,0
2017-09-14T00:04:06.280Z,0
2017-09-14T00:05:15.633Z,0
2017-09-14T00:06:25.608Z,0
2017-09-14T00:07:34.305Z,0
2017-09-14T00:08:43.960Z,0
2017-09-14T00:09:53.621Z,0
2017-09-14T00:11:03.276Z,0
2017-09-14T00:12:12.291Z,0
2017-09-14T00:13:21.634Z,0
2017-09-14T00:14:31.291Z,0
2017-09-14T00:15:40.624Z,0
2017-09-14T00:16:50.277Z,0
2017-09-14T00:17:59.612Z,0
2017-09-14T00:19:08.953Z,0
2017-09-14T00:20:17.971Z,0
2017-09-14T00:21:26.986Z,0
2017-09-14T00:22:35.681Z,0
2017-09-14T00:23:45.020Z,0
2017-09-14T00:24:54.038Z,0
2017-09-14T00:26:03.373Z,0
2017-09-14T00:27:12.387Z,0
2017-09-14T00:28:21.408Z,0
2017-09-14T00:29:30.105Z,0
2017-09-14T00:30:39.764Z,0
2017-09-14T00:31:48.779Z,0
2017-09-14T00:32:57.480Z,0
2017-09-14T00:34:06.500Z,0
2017-09-14T00:35:15.834Z,0
2017-09-14T00:36:25.489Z,0
2017-09-14T00:37:34.507Z,0
2017-09-14T00:38:43.202Z,0
2017-09-14T00:39:52.223Z,0
2017-09-14T00:41:01.879Z,0
2017-09-14T00:42:11.220Z,0
2017-09-14T00:43:20.251Z,0
2017-09-14T00:44:29.903Z,0
2017-09-14T00:45:39.558Z,0
2017-09-14T00:46:48.571Z,0
2017-09-14T00:47:57.587Z,0
2017-09-14T00:49:06.610Z,0
2017-09-14T00:50:15.307Z,0
2017-09-14T00:51:24.643Z,0
2017-09-14T00:52:33.981Z,0
2017-09-14T00:53:42.999Z,0
2017-09-14T00:54:52.335Z,0
2017-09-14T00:56:01.032Z,0
2017-09-14T00:57:10.369Z,0
2017-09-14T00:58:19.065Z,0
2017-09-14T00:59:27.765Z,0
2017-09-14T01:00:36.462Z,0
2017-09-14T01:01:45.477Z,0
2017-09-14T01:02:54.174Z,0
2017-09-14T01:04:03.512Z,0
2017-09-14T01:05:12.527Z,0
2017-09-14T01:06:21.543Z,0
2017-09-14T01:07:30.891Z,0
2017-09-14T01:08:39.906Z,0
2017-09-14T01:09:48.933Z,0
2017-09-14T01:10:58.267Z,0
2017-09-14T01:12:07.283Z,0
2017-09-14T01:13:16.948Z,0
2017-09-14T01:14:25.648Z,0
2017-09-14T01:15:34.982Z,0
2017-09-14T01:16:44.315Z,0
2017-09-14T01:17:53.333Z,0
2017-09-14T01:19:02.674Z,0
2017-09-14T01:20:12.014Z,0
2017-09-14T01:21:21.673Z,0
2017-09-14T01:22:30.688Z,0
2017-09-14T01:23:40.349Z,0
2017-09-14T01:24:49.362Z,0
2017-09-14T01:25:58.694Z,0
2017-09-14T01:27:08.029Z,0
2017-09-14T01:28:17.683Z,0
2017-09-14T01:29:27.019Z,0
2017-09-14T01:30:35.717Z,0
2017-09-14T01:31:45.376Z,0
2017-09-14T01:32:54.710Z,0
2017-09-14T01:34:04.409Z,0
2017-09-14T01:35:13.751Z,0
2017-09-14T01:36:22.766Z,0
2017-09-14T01:37:32.099Z,0
2017-09-14T01:38:41.434Z,0
2017-09-14T01:39:50.444Z,0
2017-09-14T01:40:59.461Z,0
2017-09-14T01:42:08.476Z,0
2017-09-14T01:43:18.134Z,0
2017-09-14T01:44:28.111Z,0
2017-09-14T01:45:38.086Z,0
2017-09-14T01:46:47.425Z,0
2017-09-14T01:47:56.122Z,0
2017-09-14T01:49:05.137Z,0
2017-09-14T01:50:14.476Z,0
2017-09-14T01:51:23.490Z,0
2017-09-14T01:52:32.506Z,0
2017-09-14T01:53:41.525Z,0
2017-09-14T01:54:50.220Z,0
2017-09-14T01:55:58.918Z,0
2017-09-14T01:57:07.934Z,0
2017-09-14T01:58:16.950Z,0
2017-09-14T01:59:25.964Z,0
2017-09-14T02:00:34.983Z,0
2017-09-14T02:01:44.956Z,0
2017-09-14T02:02:53.653Z,0
2017-09-14T02:04:02.668Z,0
2017-09-14T02:05:12.003Z,0
2017-09-14T02:06:21.020Z,0
2017-09-14T02:07:29.715Z,0
2017-09-14T02:08:38.414Z,0
2017-09-14T02:09:47.427Z,0
2017-09-14T02:10:56.760Z,0
2017-09-14T02:12:05.775Z,0
2017-09-14T02:13:14.793Z,0
2017-09-14T02:14:24.447Z,0
2017-09-14T02:15:33.141Z,0
2017-09-14T02:16:42.801Z,0
2017-09-14T02:17:51.496Z,0
2017-09-14T02:19:00.516Z,0
2017-09-14T02:20:09.853Z,0
2017-09-14T02:21:18.867Z,0
2017-09-14T02:22:27.882Z,0
2017-09-14T02:23:37.534Z,0
2017-09-14T02:24:46.549Z,0
2017-09-14T02:25:55.883Z,0
2017-09-14T02:27:05.218Z,0
2017-09-14T02:28:13.914Z,0
2017-09-14T02:29:22.929Z,0
2017-09-14T02:30:32.263Z,0
2017-09-14T02:31:41.597Z,0
2017-09-14T02:32:50.929Z,0
2017-09-14T02:33:59.628Z,0
2017-09-14T02:35:09.926Z,0
2017-09-14T02:36:19.259Z,0
2017-09-14T02:37:28.595Z,0
2017-09-14T02:38:37.930Z,0
2017-09-14T02:39:46.943Z,0
2017-09-14T02:40:56.278Z,0
2017-09-14T02:42:05.615Z,0
2017-09-14T02:43:14.630Z,0
2017-09-14T02:44:23.966Z,0
2017-09-14T02:45:32.985Z,0
2017-09-14T02:46:42.325Z,0
2017-09-14T02:47:51.657Z,0
2017-09-14T02:49:00.999Z,0
2017-09-14T02:50:10.337Z,0
2017-09-14T02:51:19.352Z,0
2017-09-14T02:52:28.049Z,0
2017-09-14T02:53:37.383Z,0
2017-09-14T02:54:46.077Z,0
2017-09-14T02:55:55.423Z,0
2017-09-14T02:57:04.436Z,0
2017-09-14T02:58:13.131Z,0
2017-09-14T02:59:22.150Z,0
2017-09-14T03:00:31.488Z,0
2017-09-14T03:01:40.821Z,0
2017-09-14T03:02:50.157Z,0
2017-09-14T03:03:59.498Z,0
2017-09-14T03:05:08.837Z,0
2017-09-14T03:06:17.851Z,0
2017-09-14T03:07:26.868Z,0
2017-09-14T03:08:35.888Z,0
2017-09-14T03:09:45.226Z,0
2017-09-14T03:10:53.921Z,0
2017-09-14T03:12:03.900Z,0
2017-09-14T03:13:13.552Z,0
2017-09-14T03:14:22.569Z,0
2017-09-14T03:15:31.905Z,0
2017-09-14T03:16:40.599Z,0
2017-09-14T03:17:49.936Z,0
2017-09-14T03:18:58.633Z,0
2017-09-14T03:20:07.973Z,0
2017-09-14T03:21:16.988Z,0
2017-09-14T03:22:25.687Z,0
2017-09-14T03:23:34.698Z,0
2017-09-14T03:24:44.039Z,0
2017-09-14T03:25:53.055Z,0
2017-09-14T03:27:01.749Z,0
2017-09-14T03:28:11.081Z,0
2017-09-14T03:29:20.736Z,0
2017-09-14T03:30:30.075Z,0
2017-09-14T03:31:38.771Z,0
2017-09-14T03:32:48.425Z,0
2017-09-14T03:33:57.765Z,0
2017-09-14T03:35:06.462Z,0
2017-09-14T03:36:15.477Z,0
2017-09-14T03:37:24.173Z,0
2017-09-14T03:38:33.506Z,0
2017-09-14T03:39:42.522Z,0
2017-09-14T03:40:51.539Z,0
2017-09-14T03:42:00.880Z,0
2017-09-14T03:43:09.893Z,0
2017-09-14T03:44:18.907Z,0
2017-09-14T03:45:27.921Z,0
2017-09-14T03:46:36.940Z,0
2017-09-14T03:47:45.957Z,0
2017-09-14T03:48:55.322Z,0
2017-09-14T03:50:04.019Z,0
2017-09-14T03:51:13.671Z,0
2017-09-14T03:52:23.004Z,0
2017-09-14T03:53:32.019Z,0
2017-09-14T03:54:41.673Z,0
2017-09-14T03:55:51.029Z,0
2017-09-14T03:57:00.363Z,0
2017-09-14T03:58:09.059Z,0
2017-09-14T03:59:18.072Z,0
2017-09-14T04:00:26.766Z,0
2017-09-14T04:01:36.100Z,0
2017-09-14T04:02:45.435Z,0
2017-09-14T04:03:54.134Z,0
2017-09-14T04:05:02.826Z,0
2017-09-14T04:06:12.165Z,0
2017-09-14T04:07:21.497Z,0
2017-09-14T04:08:30.831Z,0
2017-09-14T04:09:39.526Z,0
2017-09-14T04:10:48.248Z,0
2017-09-14T04:11:57.906Z,0
2017-09-14T04:13:06.921Z,0
2017-09-14T04:14:16.575Z,0
2017-09-14T04:15:25.591Z,0
2017-09-14T04:16:34.287Z,0
2017-09-14T04:17:43.624Z,0
2017-09-14T04:18:53.281Z,0
2017-09-14T04:20:01.976Z,0
2017-09-14T04:21:11.631Z,0
2017-09-14T04:22:20.646Z,0
2017-09-14T04:23:29.987Z,0
2017-09-14T04:24:38.683Z,0
2017-09-14T04:25:48.017Z,0
2017-09-14T04:26:57.032Z,0
2017-09-14T04:28:06.691Z,0
2017-09-14T04:29:15.702Z,0
2017-09-14T04:30:25.036Z,0
2017-09-14T04:31:34.049Z,0
2017-09-14T04:32:43.065Z,0
2017-09-14T04:33:52.399Z,0
2017-09-14T04:35:02.378Z,0
2017-09-14T04:36:12.037Z,0
2017-09-14T04:37:21.380Z,0
2017-09-14T04:38:31.353Z,0
2017-09-14T04:39:40.048Z,0
2017-09-14T04:40:49.390Z,0
2017-09-14T04:41:58.720Z,0
2017-09-14T04:43:07.733Z,0
2017-09-14T04:44:17.389Z,0
2017-09-14T04:45:26.725Z,0
2017-09-14T04:46:35.739Z,0
2017-09-14T04:47:44.436Z,0
2017-09-14T04:48:53.451Z,0
2017-09-14T04:50:03.430Z,0
2017-09-14T04:51:12.449Z,0
2017-09-14T04:52:22.103Z,0
2017-09-14T04:53:31.445Z,0
2017-09-14T04:54:40.784Z,0
2017-09-14T04:55:50.758Z,0
2017-09-14T04:56:59.776Z,0
2017-09-14T04:58:08.791Z,0
2017-09-14T04:59:18.774Z,0
2017-09-14T05:00:27.792Z,0
2017-09-14T05:01:37.130Z,0
2017-09-14T05:02:46.465Z,0
2017-09-14T05:03:55.478Z,0
2017-09-14T05:05:04.494Z,0
2017-09-14T05:06:14.155Z,0
2017-09-14T05:07:23.814Z,0
2017-09-14T05:08:33.156Z,0
2017-09-14T05:09:42.173Z,0
2017-09-14T05:10:51.509Z,0
2017-09-14T05:12:00.209Z,0
2017-09-14T05:13:09.544Z,0
2017-09-14T05:14:18.879Z,0
2017-09-14T05:15:28.215Z,0
2017-09-14T05:16:37.553Z,0
2017-09-14T05:17:47.212Z,0
2017-09-14T05:18:55.905Z,0
2017-09-14T05:20:05.567Z,0
2017-09-14T05:21:15.542Z,0
2017-09-14T05:22:24.882Z,0
2017-09-14T05:23:33.580Z,0
2017-09-14T05:24:42.597Z,0
2017-09-14T05:25:51.609Z,0
2017-09-14T05:27:00.623Z,0
2017-09-14T05:28:09.642Z,0
2017-09-14T05:29:18.336Z,0
2017-09-14T05:30:27.672Z,0
2017-09-14T05:31:37.007Z,0
2017-09-14T05:32:46.031Z,0
2017-09-14T05:33:55.047Z,0
2017-09-14T05:35:04.062Z,0
2017-09-14T05:36:13.078Z,0
2017-09-14T05:37:22.094Z,0
2017-09-14T05:38:31.430Z,0
2017-09-14T05:39:40.448Z,0
2017-09-14T05:40:50.102Z,0
2017-09-14T05:41:59.115Z,0
2017-09-14T05:43:08.454Z,0
2017-09-14T05:44:17.791Z,0
2017-09-14T05:45:26.808Z,0
2017-09-14T05:46:35.826Z,0
2017-09-14T05:47:45.160Z,0
2017-09-14T05:48:54.175Z,0
2017-09-14T05:50:03.188Z,0
2017-09-14T05:51:12.205Z,0
2017-09-14T05:52:21.215Z,0
2017-09-14T05:53:30.229Z,0
2017-09-14T05:54:38.926Z,0
2017-09-14T05:55:47.940Z,0
2017-09-14T05:56:57.274Z,0
2017-09-14T05:58:06.924Z,0
2017-09-14T05:59:15.941Z,0
2017-09-14T06:00:25.591Z,0
2017-09-14T06:01:35.572Z,5
2017-09-14T06:02:45.234Z,5
2017-09-14T06:03:54.571Z,5
2017-09-14T06:05:03.904Z,0
2017-09-14T06:06:12.926Z,0
2017-09-14T06:07:22.582Z,0
2017-09-14T06:08:31.598Z,5
2017-09-14T06:09:40.292Z,5
2017-09-14T06:10:49.306Z,5
2017-09-14T06:11:58.978Z,5
2017-09-14T06:13:08.957Z,0
2017-09-14T06:14:17.978Z,0
2017-09-14T06:15:27.954Z,5
2017-09-14T06:16:37.291Z,5
2017-09-14T06:17:46.627Z,0
2017-09-14T06:18:56.283Z,0
2017-09-14T06:20:05.302Z,0
2017-09-14T06:21:13.997Z,0
2017-09-14T06:22:23.970Z,0
2017-09-14T06:23:32.666Z,0
2017-09-14T06:24:42.002Z,0
2017-09-14T06:25:51.980Z,0
2017-09-14T06:27:01.314Z,0
2017-09-14T06:28:10.010Z,5
2017-09-14T06:29:19.670Z,10
2017-09-14T06:30:28.365Z,10
2017-09-14T06:31:38.020Z,10
2017-09-14T06:32:47.033Z,10
2017-09-14T06:33:55.735Z,5
2017-09-14T06:35:04.748Z,5
2017-09-14T06:36:14.111Z,5
2017-09-14T06:37:23.141Z,0
2017-09-14T06:38:32.474Z,0
2017-09-14T06:39:41.810Z,5
2017-09-14T06:40:51.465Z,5
2017-09-14T06:42:00.483Z,5
2017-09-14T06:43:09.498Z,5
2017-09-14T06:44:18.514Z,5
2017-09-14T06:45:27.208Z,5
2017-09-14T06:46:36.237Z,0
2017-09-14T06:47:46.227Z,0
2017-09-14T06:48:55.569Z,0
2017-09-14T06:50:05.223Z,0
2017-09-14T06:51:14.246Z,5
2017-09-14T06:52:23.586Z,0
2017-09-14T06:53:32.603Z,0
2017-09-14T06:54:41.940Z,0
2017-09-14T06:55:51.274Z,0
2017-09-14T06:57:00.926Z,0
2017-09-14T06:58:09.941Z,0
2017-09-14T06:59:18.637Z,5
2017-09-14T07:00:27.654Z,10
2017-09-14T07:01:36.669Z,15
2017-09-14T07:02:46.002Z,15
2017-09-14T07:03:55.018Z,15
2017-09-14T07:05:03.712Z,10
2017-09-14T07:06:13.045Z,10
2017-09-14T07:07:22.401Z,10
2017-09-14T07:08:32.064Z,15
2017-09-14T07:09:41.081Z,10
2017-09-14T07:10:50.097Z,10
2017-09-14T07:11:59.438Z,5
2017-09-14T07:13:08.453Z,5
2017-09-14T07:14:17.147Z,10
2017-09-14T07:15:25.847Z,10
2017-09-14T07:16:34.863Z,15
2017-09-14T07:17:44.558Z,15
2017-09-14T07:18:54.216Z,15
2017-09-14T07:20:03.553Z,15
2017-09-14T07:21:12.885Z,15
2017-09-14T07:22:22.226Z,15
2017-09-14T07:23:31.239Z,15
2017-09-14T07:24:40.896Z,15
2017-09-14T07:25:49.910Z,15
2017-09-14T07:26:58.928Z,25
2017-09-14T07:28:08.259Z,40
2017-09-14T07:29:17.274Z,55
2017-09-14T07:30:26.609Z,70
2017-09-14T07:31:35.952Z,30
2017-09-14T07:32:45.927Z,25
2017-09-14T07:33:54.620Z,35
2017-09-14T07:35:04.279Z,35
2017-09-14T07:36:12.977Z,20
2017-09-14T07:37:22.634Z,15
2017-09-14T07:38:31.651Z,10
2017-09-14T07:39:41.630Z,10
2017-09-14T07:40:50.977Z,15
2017-09-14T07:41:59.996Z,15
2017-09-14T07:43:09.018Z,15
2017-09-14T07:44:18.036Z,15
2017-09-14T07:45:27.052Z,20
2017-09-14T07:46:36.071Z,20
2017-09-14T07:47:45.088Z,20
2017-09-14T07:48:54.154Z,25
2017-09-14T07:50:03.174Z,20
2017-09-14T07:51:12.515Z,20
2017-09-14T07:52:21.217Z,20
2017-09-14T07:53:30.238Z,25
2017-09-14T07:54:39.570Z,25
2017-09-14T07:55:48.904Z,15
2017-09-14T07:56:58.558Z,20
2017-09-14T07:58:07.576Z,15
2017-09-14T07:59:16.912Z,15
2017-09-14T08:00:25.926Z,20
2017-09-14T08:01:35.260Z,25
2017-09-14T08:02:44.277Z,25
2017-09-14T08:03:53.611Z,20
2017-09-14T08:05:02.951Z,25
2017-09-14T08:06:11.968Z,20
2017-09-14T08:07:20.984Z,25
2017-09-14T08:08:30.642Z,20
2017-09-14T08:09:39.978Z,25
2017-09-14T08:10:49.317Z,20
2017-09-14T08:11:58.336Z,25
2017-09-14T08:13:07.672Z,25
2017-09-14T08:14:17.328Z,20
2017-09-14T08:15:26.369Z,15
2017-09-14T08:16:35.409Z,10
2017-09-14T08:17:45.068Z,10
2017-09-14T08:18:54.085Z,10
2017-09-14T08:20:03.424Z,10
2017-09-14T08:21:12.771Z,15
2017-09-14T08:22:22.114Z,20
2017-09-14T08:23:30.811Z,20
2017-09-14T08:24:40.148Z,5
2017-09-14T08:25:49.490Z,10
2017-09-14T08:26:58.507Z,20
2017-09-14T08:28:08.164Z,15
2017-09-14T08:29:16.861Z,15
2017-09-14T08:30:26.194Z,15
2017-09-14T08:31:35.210Z,5
2017-09-14T08:32:44.547Z,5
2017-09-14T08:33:53.884Z,5
2017-09-14T08:35:03.220Z,10
2017-09-14T08:36:11.917Z,30
2017-09-14T08:37:21.255Z,40
2017-09-14T08:38:30.911Z,45
2017-09-14T08:39:39.608Z,55
2017-09-14T08:40:49.303Z,125
2017-09-14T08:41:58.322Z,40
2017-09-14T08:43:07.985Z,40
2017-09-14T08:44:17.002Z,35
2017-09-14T08:45:26.658Z,35
2017-09-14T08:46:35.995Z,45
2017-09-14T08:47:45.327Z,65
2017-09-14T08:48:54.660Z,115
2017-09-14T08:50:04.633Z,45
2017-09-14T08:51:14.611Z,35
2017-09-14T08:52:23.626Z,30
2017-09-14T08:53:32.971Z,30
2017-09-14T08:54:42.307Z,15
2017-09-14T08:55:51.323Z,15
2017-09-14T08:57:00.653Z,15
2017-09-14T08:58:09.991Z,15
2017-09-14T08:59:19.008Z,10
2017-09-14T09:00:27.704Z,10
2017-09-14T09:01:36.401Z,5
2017-09-14T09:02:45.423Z,5
2017-09-14T09:03:54.759Z,10
2017-09-14T09:05:04.415Z,15
2017-09-14T09:06:13.432Z,20
2017-09-14T09:07:22.768Z,15
2017-09-14T09:08:31.468Z,10
2017-09-14T09:09:41.130Z,15
2017-09-14T09:10:50.145Z,10
2017-09-14T09:11:59.804Z,10
2017-09-14T09:13:09.466Z,15
2017-09-14T09:14:18.162Z,15
2017-09-14T09:15:27.496Z,5
2017-09-14T09:16:36.834Z,10
2017-09-14T09:17:45.852Z,15
2017-09-14T09:18:55.509Z,10
2017-09-14T09:20:05.179Z,5
2017-09-14T09:21:14.518Z,10
2017-09-14T09:22:23.855Z,10
2017-09-14T09:23:33.194Z,15
2017-09-14T09:24:41.888Z,30
2017-09-14T09:25:51.223Z,125
2017-09-14T09:27:00.880Z,135
2017-09-14T09:28:09.895Z,160
2017-09-14T09:29:18.912Z,195
2017-09-14T09:30:28.583Z,155
2017-09-14T09:31:37.912Z,160
2017-09-14T09:32:46.929Z,175
2017-09-14T09:33:56.587Z,195
2017-09-14T09:35:05.605Z,160
2017-09-14T09:36:14.300Z,75
2017-09-14T09:37:23.317Z,75
2017-09-14T09:38:32.974Z,230
2017-09-14T09:39:42.310Z,310
2017-09-14T09:40:51.327Z,175
2017-09-14T09:42:00.672Z,30
2017-09-14T09:43:10.335Z,20
2017-09-14T09:44:19.356Z,25
2017-09-14T09:45:28.379Z,50
2017-09-14T09:46:37.716Z,65
2017-09-14T09:47:47.377Z,75
2017-09-14T09:48:56.076Z,895
2017-09-14T09:50:05.095Z,285
2017-09-14T09:51:14.758Z,525
2017-09-14T09:52:23.458Z,1555
2017-09-14T09:53:32.155Z,1515
2017-09-14T09:54:41.174Z,965
2017-09-14T09:55:50.513Z,175
2017-09-14T09:56:59.212Z,120
2017-09-14T09:58:07.912Z,420
2017-09-14T09:59:17.567Z,345
2017-09-14T10:00:26.266Z,195
2017-09-14T10:01:36.248Z,50
2017-09-14T10:02:45.265Z,40
2017-09-14T10:03:54.603Z,30
2017-09-14T10:05:03.944Z,20
2017-09-14T10:06:12.640Z,25
2017-09-14T10:07:22.328Z,20
2017-09-14T10:08:31.345Z,25
2017-09-14T10:09:41.323Z,25
2017-09-14T10:10:50.017Z,20
2017-09-14T10:11:59.354Z,20
2017-09-14T10:13:08.372Z,20
2017-09-14T10:14:18.067Z,15
2017-09-14T10:15:27.083Z,10
2017-09-14T10:16:36.100Z,10
2017-09-14T10:17:46.406Z,15
2017-09-14T10:18:55.427Z,20
2017-09-14T10:20:04.128Z,15
2017-09-14T10:21:13.467Z,20
2017-09-14T10:22:22.814Z,30
2017-09-14T10:23:32.792Z,70
2017-09-14T10:24:42.126Z,60
2017-09-14T10:25:51.486Z,80
2017-09-14T10:27:00.799Z,1270
2017-09-14T10:28:10.137Z,115
2017-09-14T10:29:19.152Z,90
2017-09-14T10:30:27.850Z,100
2017-09-14T10:31:37.507Z,135
2017-09-14T10:32:46.841Z,140
2017-09-14T10:33:55.860Z,245
2017-09-14T10:35:04.560Z,40
2017-09-14T10:36:13.902Z,20
2017-09-14T10:37:22.603Z,20
2017-09-14T10:38:32.257Z,20
2017-09-14T10:39:41.600Z,20
2017-09-14T10:40:50.944Z,15
2017-09-14T10:41:59.959Z,10
2017-09-14T10:43:09.296Z,10
2017-09-14T10:44:18.635Z,15
2017-09-14T10:45:28.305Z,20
2017-09-14T10:46:38.282Z,25
2017-09-14T10:47:47.297Z,30
2017-09-14T10:48:56.314Z,45
2017-09-14T10:50:05.651Z,70
2017-09-14T10:51:14.987Z,40
2017-09-14T10:52:23.684Z,35
2017-09-14T10:53:33.338Z,30
2017-09-14T10:54:42.036Z,35
2017-09-14T10:55:51.053Z,50
2017-09-14T10:57:00.707Z,80
2017-09-14T10:58:10.052Z,295
2017-09-14T10:59:19.394Z,285
2017-09-14T11:00:28.416Z,1755
2017-09-14T11:01:37.112Z,1715
2017-09-14T11:02:46.769Z,1695
2017-09-14T11:03:55.784Z,1115
2017-09-14T11:05:04.806Z,1695
2017-09-14T11:06:14.144Z,1015
2017-09-14T11:07:22.844Z,1220
2017-09-14T11:08:32.182Z,1720
2017-09-14T11:09:40.881Z,1775
2017-09-14T11:10:50.223Z,125
2017-09-14T11:11:59.889Z,90
2017-09-14T11:13:08.914Z,85
2017-09-14T11:14:17.932Z,95
2017-09-14T11:15:27.272Z,1245
2017-09-14T11:16:36.292Z,565
2017-09-14T11:17:45.949Z,120
2017-09-14T11:18:54.648Z,75
2017-09-14T11:20:03.991Z,55
2017-09-14T11:21:13.010Z,50
2017-09-14T11:22:22.030Z,30
2017-09-14T11:23:31.048Z,25
2017-09-14T11:24:40.385Z,40
2017-09-14T11:25:49.727Z,30
2017-09-14T11:26:59.385Z,20
2017-09-14T11:28:09.041Z,10
2017-09-14T11:29:17.745Z,10
2017-09-14T11:30:26.442Z,5
2017-09-14T11:31:36.101Z,5
2017-09-14T11:32:45.123Z,10
2017-09-14T11:33:54.142Z,10
2017-09-14T11:35:03.480Z,25
2017-09-14T11:36:12.498Z,35
2017-09-14T11:37:21.835Z,270
2017-09-14T11:38:31.497Z,160
2017-09-14T11:39:40.513Z,735
2017-09-14T11:40:49.850Z,295
2017-09-14T11:41:59.518Z,625
2017-09-14T11:43:09.497Z,55
2017-09-14T11:44:18.836Z,110
2017-09-14T11:45:28.177Z,255
2017-09-14T11:46:37.194Z,1650
2017-09-14T11:47:46.213Z,1645
2017-09-14T11:48:55.572Z,1660
2017-09-14T11:50:05.230Z,1280
2017-09-14T11:51:14.892Z,1635
2017-09-14T11:52:23.914Z,1595
2017-09-14T11:53:32.935Z,1555
2017-09-14T11:54:41.634Z,1015
2017-09-14T11:55:51.288Z,260
2017-09-14T11:57:00.630Z,175
2017-09-14T11:58:09.648Z,180
2017-09-14T11:59:18.987Z,125
2017-09-14T12:00:28.649Z,135
2017-09-14T12:01:37.669Z,120
2017-09-14T12:02:46.689Z,140
2017-09-14T12:03:56.029Z,165
2017-09-14T12:05:04.729Z,165
2017-09-14T12:06:13.429Z,55
2017-09-14T12:07:23.090Z,90
2017-09-14T12:08:32.110Z,35
2017-09-14T12:09:41.773Z,30
2017-09-14T12:10:51.115Z,40
2017-09-14T12:12:00.449Z,70
2017-09-14T12:13:09.468Z,95
2017-09-14T12:14:18.812Z,85
2017-09-14T12:15:28.471Z,115
2017-09-14T12:16:37.811Z,145
2017-09-14T12:17:47.150Z,85
2017-09-14T12:18:56.488Z,110
2017-09-14T12:20:06.144Z,105
2017-09-14T12:21:15.164Z,105
2017-09-14T12:22:24.502Z,110
2017-09-14T12:23:33.549Z,85
2017-09-14T12:24:42.221Z,125
2017-09-14T12:25:51.562Z,110
2017-09-14T12:27:00.901Z,115
2017-09-14T12:28:09.601Z,105
2017-09-14T12:29:18.630Z,60
2017-09-14T12:30:27.640Z,120
2017-09-14T12:31:36.657Z,115
2017-09-14T12:32:45.356Z,125
2017-09-14T12:33:54.056Z,105
2017-09-14T12:35:03.388Z,80
2017-09-14T12:36:12.088Z,70
2017-09-14T12:37:21.443Z,90
2017-09-14T12:38:30.462Z,90
2017-09-14T12:39:40.122Z,55
2017-09-14T12:40:49.142Z,40
2017-09-14T12:41:58.161Z,25
2017-09-14T12:43:07.178Z,20
2017-09-14T12:44:16.514Z,60
2017-09-14T12:45:25.857Z,45
2017-09-14T12:46:35.514Z,20
2017-09-14T12:47:44.852Z,20
2017-09-14T12:48:54.192Z,15
2017-09-14T12:50:03.209Z,10
2017-09-14T12:51:12.552Z,5
2017-09-14T12:52:21.251Z,5
2017-09-14T12:53:30.907Z,0
2017-09-14T12:54:39.923Z,0
2017-09-14T12:55:49.260Z,0
2017-09-14T12:56:58.601Z,0
2017-09-14T12:58:07.941Z,0
2017-09-14T12:59:16.960Z,5
2017-09-14T13:00:25.978Z,5
2017-09-14T13:01:34.995Z,5
2017-09-14T13:02:44.334Z,5
2017-09-14T13:03:53.669Z,10
2017-09-14T13:05:02.368Z,10
2017-09-14T13:06:12.028Z,15
2017-09-14T13:07:21.692Z,25
2017-09-14T13:08:30.710Z,35
2017-09-14T13:09:39.730Z,35
2017-09-14T13:10:48.750Z,35
2017-09-14T13:11:57.764Z,50
2017-09-14T13:13:07.103Z,60
2017-09-14T13:14:16.128Z,70
2017-09-14T13:15:25.148Z,65
2017-09-14T13:16:34.490Z,50
2017-09-14T13:17:43.504Z,45
2017-09-14T13:18:52.201Z,45
2017-09-14T13:20:01.229Z,60
2017-09-14T13:21:10.897Z,90
2017-09-14T13:22:20.874Z,85
2017-09-14T13:23:29.890Z,70
2017-09-14T13:24:39.240Z,60
2017-09-14T13:25:48.256Z,60
2017-09-14T13:26:57.277Z,55
2017-09-14T13:28:06.934Z,55
2017-09-14T13:29:15.952Z,55
2017-09-14T13:30:25.612Z,50
2017-09-14T13:31:35.287Z,55
2017-09-14T13:32:44.304Z,55
2017-09-14T13:33:53.646Z,55
2017-09-14T13:35:02.664Z,55
2017-09-14T13:36:11.682Z,55
2017-09-14T13:37:20.697Z,70
2017-09-14T13:38:30.361Z,60
2017-09-14T13:39:39.379Z,55
2017-09-14T13:40:48.399Z,25
2017-09-14T13:41:57.736Z,15
2017-09-14T13:43:06.435Z,15
2017-09-14T13:44:15.131Z,10
2017-09-14T13:45:24.467Z,20
2017-09-14T13:46:33.800Z,20
2017-09-14T13:47:42.817Z,20
2017-09-14T13:48:52.473Z,30
2017-09-14T13:50:01.171Z,30
2017-09-14T13:51:09.866Z,20
2017-09-14T13:52:18.885Z,10
2017-09-14T13:53:28.221Z,10
2017-09-14T13:54:37.560Z,5
2017-09-14T13:55:46.578Z,5
2017-09-14T13:56:55.597Z,5
2017-09-14T13:58:04.935Z,5
2017-09-14T13:59:13.632Z,10
2017-09-14T14:00:22.655Z,10
2017-09-14T14:01:31.993Z,15
2017-09-14T14:02:40.690Z,10
2017-09-14T14:03:49.710Z,5
2017-09-14T14:04:58.730Z,5
2017-09-14T14:06:08.384Z,5
2017-09-14T14:07:17.723Z,5
2017-09-14T14:08:27.062Z,5
2017-09-14T14:09:36.721Z,10
2017-09-14T14:10:46.379Z,20
2017-09-14T14:11:55.718Z,45
2017-09-14T14:13:05.372Z,65
2017-09-14T14:14:14.391Z,60
2017-09-14T14:15:23.732Z,60
2017-09-14T14:16:33.067Z,50
2017-09-14T14:17:41.762Z,50
2017-09-14T14:18:51.098Z,30
2017-09-14T14:20:00.121Z,25
2017-09-14T14:21:09.139Z,25
2017-09-14T14:22:17.833Z,20
2017-09-14T14:23:26.851Z,15
2017-09-14T14:24:35.548Z,5
2017-09-14T14:25:44.565Z,5
2017-09-14T14:26:53.581Z,5
2017-09-14T14:28:02.277Z,5
2017-09-14T14:29:10.975Z,5
2017-09-14T14:30:20.312Z,5
2017-09-14T14:31:29.337Z,5
2017-09-14T14:32:38.993Z,10
2017-09-14T14:33:48.971Z,10
2017-09-14T14:34:57.994Z,10
2017-09-14T14:36:06.692Z,5
2017-09-14T14:37:16.034Z,5
2017-09-14T14:38:25.694Z,15
2017-09-14T14:39:35.677Z,15
2017-09-14T14:40:44.397Z,20
2017-09-14T14:41:53.733Z,20
2017-09-14T14:43:03.076Z,20
2017-09-14T14:44:13.055Z,20
2017-09-14T14:45:21.791Z,15
2017-09-14T14:46:30.770Z,10
2017-09-14T14:47:39.787Z,10
2017-09-14T14:48:49.452Z,10
2017-09-14T14:49:58.790Z,10
2017-09-14T14:51:08.131Z,15
2017-09-14T14:52:17.474Z,15
2017-09-14T14:53:26.504Z,15
2017-09-14T14:54:36.163Z,10
2017-09-14T14:55:45.501Z,5
2017-09-14T14:56:55.163Z,5
2017-09-14T14:58:04.181Z,5
2017-09-14T14:59:13.200Z,5
2017-09-14T15:00:22.546Z,5
2017-09-14T15:01:32.205Z,10
2017-09-14T15:02:41.545Z,5
2017-09-14T15:03:50.881Z,5
2017-09-14T15:04:59.579Z,5
2017-09-14T15:06:08.918Z,10
2017-09-14T15:07:17.934Z,5
2017-09-14T15:08:26.627Z,5
2017-09-14T15:09:35.645Z,5
2017-09-14T15:10:45.630Z,5
2017-09-14T15:11:54.327Z,5
2017-09-14T15:13:03.021Z,5
2017-09-14T15:14:12.044Z,5
2017-09-14T15:15:21.064Z,5
2017-09-14T15:16:30.408Z,5
2017-09-14T15:17:39.743Z,0
2017-09-14T15:18:49.079Z,0
2017-09-14T15:19:57.773Z,0
2017-09-14T15:21:07.117Z,0
2017-09-14T15:22:16.453Z,0
2017-09-14T15:23:25.788Z,5
2017-09-14T15:24:35.454Z,5
2017-09-14T15:25:44.799Z,5
2017-09-14T15:26:53.494Z,5
2017-09-14T15:28:02.518Z,5
2017-09-14T15:29:12.173Z,5
2017-09-14T15:30:21.510Z,5
2017-09-14T15:31:30.526Z,5
2017-09-14T15:32:40.506Z,5
2017-09-14T15:33:49.847Z,5
2017-09-14T15:34:58.875Z,5
2017-09-14T15:36:08.214Z,5
2017-09-14T15:37:17.549Z,0
2017-09-14T15:38:26.886Z,5
2017-09-14T15:39:36.544Z,5
2017-09-14T15:40:45.885Z,0
2017-09-14T15:41:55.223Z,5
2017-09-14T15:43:04.251Z,5
2017-09-14T15:44:13.591Z,5
2017-09-14T15:45:22.925Z,5
2017-09-14T15:46:32.599Z,10
2017-09-14T15:47:41.613Z,10
2017-09-14T15:48:50.953Z,10
2017-09-14T15:49:59.650Z,5
2017-09-14T15:51:09.308Z,5
2017-09-14T15:52:18.658Z,5
2017-09-14T15:53:27.992Z,5
2017-09-14T15:54:37.008Z,5
2017-09-14T15:55:46.029Z,5
2017-09-14T15:56:55.048Z,0
2017-09-14T15:58:04.063Z,0
2017-09-14T15:59:13.726Z,0
2017-09-14T16:00:22.744Z,0
2017-09-14T16:01:32.764Z,5
2017-09-14T16:02:42.426Z,0
2017-09-14T16:03:51.443Z,0
2017-09-14T16:05:01.099Z,0
2017-09-14T16:06:10.115Z,0
2017-09-14T16:07:19.139Z,0
2017-09-14T16:08:28.155Z,0
2017-09-14T16:09:37.327Z,0
2017-09-14T16:10:46.349Z,0
2017-09-14T16:11:56.009Z,0
2017-09-14T16:13:05.667Z,5
2017-09-14T16:14:15.006Z,5
2017-09-14T16:15:24.339Z,5
2017-09-14T16:16:33.356Z,0
2017-09-14T16:17:43.027Z,0
2017-09-14T16:18:52.367Z,0
2017-09-14T16:20:01.065Z,0
2017-09-14T16:21:09.762Z,0
2017-09-14T16:22:18.778Z,0
2017-09-14T16:23:28.115Z,0
2017-09-14T16:24:37.458Z,0
2017-09-14T16:25:47.439Z,0
2017-09-14T16:26:57.096Z,0
2017-09-14T16:28:06.753Z,0
2017-09-14T16:29:16.091Z,0
2017-09-14T16:30:25.426Z,0
2017-09-14T16:31:34.760Z,0
2017-09-14T16:32:44.422Z,0
2017-09-14T16:33:53.444Z,0
2017-09-14T16:35:02.460Z,0
2017-09-14T16:36:11.477Z,0
2017-09-14T16:37:20.816Z,0
2017-09-14T16:38:30.487Z,0
2017-09-14T16:39:39.825Z,0
2017-09-14T16:40:48.842Z,0
2017-09-14T16:41:57.856Z,0
2017-09-14T16:43:07.512Z,0